Time;durP1;ratioP1;P1;durP2;ratioP2;P2;SDS_P1;SDS_P2;PMS_P1;PMS_P2;Temp;Humidity;BMP_temperature;BMP_pressure;BME280_temperature;BME280_humidity;BME280_pressure;Samples;Min_cycle;Max_cycle;Signal;HPM_P1;HPM_P2
2023/02/22 00:01:17;;;;;;;38.35;14.90;;;7.90;99.90;;;;;;5057807;28;25080;-90
2023/02/22 00:03:50;;;;;;;37.33;13.60;;;7.90;99.90;;;;;;5057601;28;25108;-90
2023/02/22 00:06:20;;;;;;;39.55;14.63;;;7.90;99.90;;;;;;5057725;28;25055;-91
2023/02/22 00:08:48;;;;;;;38.58;14.80;;;7.90;99.90;;;;;;5058552;28;25083;-90
2023/02/22 00:11:15;;;;;;;39.25;14.30;;;7.90;99.90;;;;;;5057049;28;25075;-90
2023/02/22 00:13:44;;;;;;;39.05;15.52;;;7.90;99.90;;;;;;5058755;28;25128;-91
2023/02/22 00:16:20;;;;;;;43.00;14.63;;;7.90;99.90;;;;;;5058402;28;25064;-91
2023/02/22 00:18:49;;;;;;;35.67;14.82;;;7.90;99.90;;;;;;5056915;28;25118;-90
2023/02/22 00:21:16;;;;;;;35.75;13.77;;;7.90;99.90;;;;;;5057345;28;25079;-90
2023/02/22 00:23:45;;;;;;;39.20;15.00;;;7.90;99.90;;;;;;5057284;28;25109;-90
2023/02/22 00:26:18;;;;;;;35.10;13.98;;;7.90;99.90;;;;;;5057546;28;25123;-90
2023/02/22 00:28:51;;;;;;;38.85;13.10;;;7.90;99.90;;;;;;5057122;28;25079;-90
2023/02/22 00:31:18;;;;;;;33.67;12.50;;;7.90;99.90;;;;;;5057231;28;25058;-90
2023/02/22 00:33:46;;;;;;;34.33;13.93;;;7.90;99.90;;;;;;5056989;28;25072;-90
2023/02/22 00:36:14;;;;;;;33.85;14.07;;;7.90;99.90;;;;;;5057154;28;25067;-90
2023/02/22 00:38:41;;;;;;;32.97;12.23;;;7.90;99.90;;;;;;5056955;28;25111;-90
2023/02/22 00:41:09;;;;;;;41.08;14.63;;;8.00;99.90;;;;;;5056917;28;25061;-90
2023/02/22 00:43:37;;;;;;;32.33;12.27;;;7.90;99.90;;;;;;5056954;28;25055;-90
2023/02/22 00:46:05;;;;;;;38.53;14.32;;;8.00;99.90;;;;;;5056911;28;25065;-90
2023/02/22 00:48:32;;;;;;;35.97;14.68;;;7.90;99.90;;;;;;5056894;28;25125;-90
2023/02/22 00:51:00;;;;;;;37.88;14.05;;;7.90;99.90;;;;;;5057077;28;25093;-90
2023/02/22 00:53:27;;;;;;;34.33;12.60;;;8.00;99.90;;;;;;5056741;28;25079;-90
2023/02/22 00:55:55;;;;;;;37.65;14.15;;;8.00;99.90;;;;;;5056785;28;25067;-90
2023/02/22 00:58:23;;;;;;;41.13;14.30;;;8.00;99.90;;;;;;5056398;28;25130;-91
2023/02/22 01:00:50;;;;;;;33.70;13.60;;;8.00;99.90;;;;;;5056640;28;25060;-90
2023/02/22 01:03:19;;;;;;;38.25;15.00;;;8.00;99.90;;;;;;5056527;28;25120;-90
2023/02/22 01:05:46;;;;;;;37.80;13.68;;;8.00;99.90;;;;;;5056574;28;25077;-90
2023/02/22 01:08:15;;;;;;;40.03;14.45;;;7.90;99.90;;;;;;5056560;28;25105;-89
2023/02/22 01:10:43;;;;;;;37.72;13.95;;;7.90;99.90;;;;;;5056507;28;25072;-90
2023/02/22 01:13:11;;;;;;;46.15;15.73;;;7.90;99.90;;;;;;5056310;28;25122;-90
2023/02/22 01:15:41;;;;;;;38.78;13.77;;;7.80;99.90;;;;;;5056767;28;25108;-90
2023/02/22 01:18:09;;;;;;;30.20;11.88;;;7.80;99.90;;;;;;5056272;28;25058;-90
2023/02/22 01:20:36;;;;;;;29.98;11.90;;;7.80;99.90;;;;;;5055789;28;25043;-90
2023/02/22 01:23:06;;;;;;;38.10;14.32;;;7.70;99.90;;;;;;5056215;28;25075;-91
2023/02/22 01:25:35;;;;;;;34.03;14.18;;;7.70;99.90;;;;;;5056203;28;25123;-90
2023/02/22 01:28:06;;;;;;;36.30;13.18;;;7.70;99.90;;;;;;5055681;28;25079;-90
2023/02/22 01:30:35;;;;;;;35.40;12.52;;;7.70;99.90;;;;;;5056201;28;25058;-90
2023/02/22 01:33:05;;;;;;;29.98;11.68;;;7.70;99.90;;;;;;5055784;28;25135;-90
2023/02/22 01:35:35;;;;;;;35.13;13.63;;;7.70;99.90;;;;;;5056214;28;25133;-90
2023/02/22 01:38:02;;;;;;;35.50;13.60;;;7.70;99.90;;;;;;5056036;28;25064;-90
2023/02/22 01:43:25;;;;;;;36.75;13.60;;;7.70;99.90;;;;;;5139044;22;25070;-89
2023/02/22 01:46:07;;;;;;;36.05;14.05;;;7.60;99.90;;;;;;5056806;28;25075;-90
2023/02/22 01:48:54;;;;;;;39.00;14.00;;;7.70;99.90;;;;;;5039206;28;25073;-90
2023/02/22 01:51:37;;;;;;;39.22;13.77;;;7.70;99.90;;;;;;5039513;28;25120;-90
2023/02/22 01:54:17;;;;;;;35.58;12.90;;;7.70;99.90;;;;;;5039069;28;25059;-90
2023/02/22 01:57:04;;;;;;;33.80;12.50;;;7.70;99.90;;;;;;5039092;28;25135;-90
2023/02/22 01:59:36;;;;;;;32.75;11.88;;;7.60;99.90;;;;;;5038980;28;25061;-90
2023/02/22 02:02:04;;;;;;;36.92;12.48;;;7.60;99.90;;;;;;5039083;28;25048;-90
2023/02/22 02:04:33;;;;;;;37.05;13.23;;;7.60;99.90;;;;;;5039824;28;25076;-90
2023/02/22 02:07:05;;;;;;;33.75;12.32;;;7.60;99.90;;;;;;5039046;28;25100;-89
2023/02/22 02:10:00;;;;;;;34.13;13.20;;;7.60;99.90;;;;;;5041629;28;25071;-90
2023/02/22 02:12:32;;;;;;;39.58;12.95;;;7.60;99.90;;;;;;5043139;28;25082;-90
2023/02/22 02:15:18;;;;;;;33.60;12.05;;;7.60;99.90;;;;;;5042375;28;25084;-90
2023/02/22 02:17:46;;;;;;;28.88;12.82;;;7.60;99.90;;;;;;5043068;28;25063;-89
2023/02/22 02:20:42;;;;;;;31.73;11.73;;;7.60;99.90;;;;;;5042939;28;25058;-89
2023/02/22 02:23:28;;;;;;;27.60;10.33;;;7.60;99.90;;;;;;5042863;28;25110;-90
2023/02/22 02:26:31;;;;;;;35.00;10.98;;;7.60;99.90;;;;;;5042869;28;25096;-91
2023/02/22 02:29:37;;;;;;;26.23;9.93;;;7.60;99.90;;;;;;5021964;28;25066;-90
2023/02/22 02:32:34;;;;;;;29.88;11.73;;;7.60;99.90;;;;;;5042469;28;25110;-89
2023/02/22 02:35:24;;;;;;;30.17;10.48;;;7.60;99.90;;;;;;5042803;28;25068;-90
2023/02/22 02:38:07;;;;;;;26.60;10.75;;;7.60;99.90;;;;;;5042604;28;25066;-91
2023/02/22 02:41:12;;;;;;;27.73;10.75;;;7.60;99.90;;;;;;5042506;28;25108;-90
2023/02/22 02:43:51;;;;;;;28.88;9.90;;;7.60;99.90;;;;;;5019290;28;25066;-90
2023/02/22 02:46:32;;;;;;;30.90;10.57;;;7.60;99.90;;;;;;5019516;28;25104;-91
2023/02/22 02:49:07;;;;;;;32.47;10.55;;;7.50;99.90;;;;;;5019565;28;25051;-90
2023/02/22 02:51:41;;;;;;;29.23;10.02;;;7.50;99.90;;;;;;5019324;28;25081;-90
2023/02/22 02:54:13;;;;;;;24.90;10.13;;;7.50;99.90;;;;;;5019274;28;25131;-90
2023/02/22 02:56:45;;;;;;;27.02;10.93;;;7.50;99.90;;;;;;5019263;28;25045;-90
2023/02/22 02:59:31;;;;;;;28.75;11.88;;;7.50;99.90;;;;;;5019139;28;25119;-90
2023/02/22 03:02:23;;;;;;;26.95;10.63;;;7.50;99.90;;;;;;5020056;28;25116;-91
2023/02/22 03:05:28;;;;;;;31.38;10.68;;;7.50;99.90;;;;;;5019223;28;25068;-91
2023/02/22 03:08:02;;;;;;;28.88;10.43;;;7.50;99.90;;;;;;5134526;22;25111;-90
2023/02/22 03:10:52;;;;;;;26.63;10.05;;;7.50;99.90;;;;;;5042066;28;25136;-90
2023/02/22 03:13:50;;;;;;;29.80;11.30;;;7.50;99.90;;;;;;5041952;28;25055;-89
2023/02/22 03:16:45;;;;;;;27.58;10.20;;;7.50;99.90;;;;;;5042169;28;25079;-90
2023/02/22 03:19:33;;;;;;;23.75;8.90;;;7.50;99.90;;;;;;5041927;28;25099;-90
2023/02/22 03:22:13;;;;;;;30.50;10.13;;;7.50;99.90;;;;;;5041290;28;25007;-90
2023/02/22 03:24:51;;;;;;;28.95;10.23;;;7.50;99.90;;;;;;5041957;28;25075;-90
2023/02/22 03:27:31;;;;;;;25.70;9.93;;;7.50;99.90;;;;;;5041757;28;25050;-90
2023/02/22 03:30:07;;;;;;;28.60;10.85;;;7.50;99.90;;;;;;5041662;28;25101;-90
2023/02/22 03:32:41;;;;;;;27.10;10.38;;;7.60;99.90;;;;;;5041680;28;25074;-90
2023/02/22 03:35:22;;;;;;;25.65;10.23;;;7.60;99.90;;;;;;5059398;28;25123;-89
2023/02/22 03:37:56;;;;;;;26.42;9.50;;;7.60;99.90;;;;;;5041550;28;25108;-90
2023/02/22 03:40:30;;;;;;;25.38;10.68;;;7.60;99.90;;;;;;5041425;28;25104;-90
2023/02/22 03:43:14;;;;;;;25.27;10.77;;;7.70;99.90;;;;;;5059226;28;25135;-90
2023/02/22 03:45:44;;;;;;;28.33;9.38;;;7.70;99.90;;;;;;5041294;28;25072;-90
2023/02/22 03:48:25;;;;;;;26.05;10.13;;;7.70;99.90;;;;;;5041352;28;25055;-90
2023/02/22 03:50:52;;;;;;;26.15;9.88;;;7.70;99.90;;;;;;5041369;28;25072;-90
2023/02/22 03:53:22;;;;;;;22.05;9.55;;;7.70;99.90;;;;;;5040669;28;25059;-89
2023/02/22 03:55:50;;;;;;;23.27;9.05;;;7.80;99.90;;;;;;5041279;28;25051;-89
2023/02/22 03:58:21;;;;;;;23.77;9.73;;;7.80;99.90;;;;;;5041082;28;25078;-89
2023/02/22 04:00:51;;;;;;;22.95;9.60;;;7.80;99.90;;;;;;5058775;28;25070;-90
2023/02/22 04:03:20;;;;;;;23.98;9.30;;;7.80;99.90;;;;;;5041167;28;25068;-90
2023/02/22 04:05:48;;;;;;;27.67;10.25;;;7.80;99.90;;;;;;5040868;28;25090;-89
2023/02/22 04:08:16;;;;;;;23.90;9.43;;;7.90;99.90;;;;;;5041586;28;25073;-90
2023/02/22 04:10:43;;;;;;;24.15;9.68;;;7.90;99.90;;;;;;5057584;28;25111;-90
2023/02/22 04:13:10;;;;;;;23.38;9.40;;;7.90;99.90;;;;;;5057346;28;25082;-89
2023/02/22 04:15:38;;;;;;;24.63;9.93;;;7.90;99.90;;;;;;5057405;28;25069;-90
2023/02/22 04:18:05;;;;;;;23.25;10.18;;;7.90;99.90;;;;;;5057419;28;25061;-90
2023/02/22 04:20:33;;;;;;;28.00;9.35;;;7.90;99.90;;;;;;5057617;28;25059;-90
2023/02/22 04:23:00;;;;;;;23.75;11.02;;;7.90;99.90;;;;;;5057354;28;25054;-90
2023/02/22 04:25:28;;;;;;;34.60;10.55;;;7.90;99.90;;;;;;5057317;28;25062;-90
2023/02/22 04:27:56;;;;;;;26.73;10.45;;;7.90;99.90;;;;;;5057056;28;25087;-90
2023/02/22 04:30:23;;;;;;;29.95;11.43;;;7.90;99.90;;;;;;5057234;28;25100;-90
2023/02/22 04:32:51;;;;;;;28.48;10.98;;;7.90;99.90;;;;;;5056614;28;25075;-90
2023/02/22 04:35:19;;;;;;;28.45;10.77;;;8.00;99.90;;;;;;5057852;28;25070;-90
2023/02/22 04:37:46;;;;;;;31.58;11.15;;;8.00;99.90;;;;;;5057835;28;25065;-90
2023/02/22 04:40:15;;;;;;;25.55;10.60;;;8.00;99.90;;;;;;5057028;28;25099;-90
2023/02/22 04:42:42;;;;;;;27.20;10.60;;;8.00;99.90;;;;;;5056914;28;25092;-90
2023/02/22 04:45:10;;;;;;;30.88;11.23;;;8.00;99.90;;;;;;5057986;28;25079;-90
2023/02/22 04:47:37;;;;;;;29.65;10.40;;;8.00;99.90;;;;;;5056759;28;25070;-90
2023/02/22 04:50:06;;;;;;;29.42;10.85;;;8.00;99.90;;;;;;5058104;28;25066;-91
2023/02/22 04:52:34;;;;;;;29.52;11.45;;;8.00;99.90;;;;;;5056765;28;25062;-90
2023/02/22 04:55:01;;;;;;;35.92;13.15;;;8.00;99.90;;;;;;5056817;28;25129;-91
2023/02/22 04:57:29;;;;;;;32.70;11.57;;;8.00;99.90;;;;;;5056714;28;25110;-90
2023/02/22 04:59:56;;;;;;;30.58;10.98;;;8.00;99.90;;;;;;5056762;28;25131;-91
2023/02/22 05:02:24;;;;;;;34.10;11.80;;;8.00;99.90;;;;;;5057869;28;25130;-91
2023/02/22 05:04:51;;;;;;;33.88;11.68;;;8.10;99.90;;;;;;5056746;28;25062;-91
2023/02/22 05:07:18;;;;;;;30.92;11.48;;;8.10;99.90;;;;;;5057682;28;25051;-91
2023/02/22 05:09:46;;;;;;;29.88;11.00;;;8.10;99.90;;;;;;5056169;28;25111;-90
2023/02/22 05:12:13;;;;;;;33.00;11.95;;;8.10;99.90;;;;;;5056422;28;25142;-90
2023/02/22 05:14:41;;;;;;;37.05;12.68;;;8.20;99.90;;;;;;5056912;28;25072;-90
2023/02/22 05:17:09;;;;;;;30.25;12.07;;;8.10;99.90;;;;;;5056646;28;25070;-90
2023/02/22 05:19:36;;;;;;;33.05;12.45;;;8.20;99.90;;;;;;5056296;28;25070;-90
2023/02/22 05:22:04;;;;;;;35.40;12.15;;;8.20;99.90;;;;;;5056223;28;25070;-90
2023/02/22 05:24:31;;;;;;;36.65;14.63;;;8.20;99.90;;;;;;5056274;28;25105;-89
2023/02/22 05:26:58;;;;;;;40.28;13.65;;;8.20;99.90;;;;;;5056082;28;25073;-90
2023/02/22 05:29:25;;;;;;;31.50;11.43;;;8.20;99.90;;;;;;5055980;28;25062;-90
2023/02/22 05:31:53;;;;;;;35.63;12.95;;;8.20;99.90;;;;;;5055936;28;25075;-90
2023/02/22 05:34:20;;;;;;;35.47;12.35;;;8.10;99.90;;;;;;5055413;28;25068;-90
2023/02/22 05:36:47;;;;;;;32.90;12.68;;;8.10;99.90;;;;;;5056196;28;25074;-90
2023/02/22 05:39:14;;;;;;;37.63;12.35;;;8.20;99.90;;;;;;5056291;28;25060;-90
2023/02/22 05:41:42;;;;;;;32.67;13.88;;;8.20;99.90;;;;;;5056081;28;25087;-90
2023/02/22 05:44:09;;;;;;;37.13;14.13;;;8.20;99.90;;;;;;5055433;28;25070;-90
2023/02/22 05:46:36;;;;;;;33.78;13.85;;;8.20;99.90;;;;;;5055704;28;25063;-90
2023/02/22 05:49:03;;;;;;;35.58;13.05;;;8.20;99.90;;;;;;5057194;28;25065;-91
2023/02/22 05:51:30;;;;;;;37.00;14.20;;;8.20;99.90;;;;;;5056993;28;25112;-91
2023/02/22 05:53:57;;;;;;;32.10;13.02;;;8.20;99.90;;;;;;5055937;28;25079;-90
2023/02/22 05:56:26;;;;;;;37.58;13.98;;;8.10;99.90;;;;;;5055728;28;25093;-87
2023/02/22 05:58:54;;;;;;;37.28;14.55;;;8.10;99.90;;;;;;5056432;28;25115;-87
2023/02/22 06:01:22;;;;;;;38.85;14.70;;;8.10;99.90;;;;;;5055584;28;25065;-87
2023/02/22 06:03:51;;;;;;;41.28;14.93;;;8.10;99.90;;;;;;5055506;28;25097;-87
2023/02/22 06:06:19;;;;;;;33.88;13.90;;;8.10;99.90;;;;;;5055397;28;25058;-87
2023/02/22 06:08:47;;;;;;;42.00;13.98;;;8.10;99.90;;;;;;5055104;28;25080;-77
2023/02/22 06:11:15;;;;;;;38.13;15.10;;;8.10;99.90;;;;;;5056073;28;25092;-78
2023/02/22 06:13:42;;;;;;;38.67;15.77;;;8.10;99.90;;;;;;5055424;28;25121;-79
2023/02/22 06:16:10;;;;;;;35.55;15.15;;;8.10;99.90;;;;;;5056250;28;25092;-79
2023/02/22 06:18:37;;;;;;;40.55;15.30;;;8.10;99.90;;;;;;5056350;28;25102;-80
2023/02/22 06:21:08;;;;;;;36.65;14.77;;;8.10;99.90;;;;;;5055135;28;25065;-78
2023/02/22 06:23:36;;;;;;;43.60;14.98;;;8.10;99.90;;;;;;5055913;28;25058;-79
2023/02/22 06:26:04;;;;;;;35.80;14.35;;;8.10;99.90;;;;;;5054841;28;25061;-82
2023/02/22 06:28:32;;;;;;;40.35;15.20;;;8.10;99.90;;;;;;5056374;28;25132;-83
2023/02/22 06:30:59;;;;;;;47.25;15.38;;;8.10;99.90;;;;;;5056393;28;25076;-78
2023/02/22 06:33:26;;;;;;;33.67;14.23;;;8.10;99.90;;;;;;5054963;28;25109;-82
2023/02/22 06:35:54;;;;;;;39.03;15.40;;;8.10;99.90;;;;;;5055546;28;25062;-90
2023/02/22 06:38:26;;;;;;;40.28;15.80;;;8.10;99.90;;;;;;5055416;28;25087;-90
2023/02/22 06:40:57;;;;;;;35.28;14.27;;;8.20;99.90;;;;;;5055272;28;25107;-87
2023/02/22 06:43:24;;;;;;;41.83;15.80;;;8.20;99.90;;;;;;5055268;28;25106;-84
2023/02/22 06:45:52;;;;;;;40.58;14.73;;;8.20;99.90;;;;;;5055037;28;25115;-88
2023/02/22 06:48:22;;;;;;;39.25;14.77;;;8.20;99.90;;;;;;5055111;28;25056;-89
2023/02/22 06:50:49;;;;;;;38.95;14.75;;;8.20;99.90;;;;;;5055036;28;24961;-85
2023/02/22 06:53:16;;;;;;;42.05;15.20;;;8.20;99.90;;;;;;5056386;28;25061;-92
2023/02/22 06:55:43;;;;;;;44.90;16.40;;;8.20;99.90;;;;;;5058616;28;25109;-89
2023/02/22 06:58:10;;;;;;;45.50;17.23;;;8.30;99.90;;;;;;5058784;28;25044;-86
2023/02/22 07:00:38;;;;;;;35.75;14.75;;;8.30;99.90;;;;;;5058479;28;25056;-74
2023/02/22 07:03:05;;;;;;;34.42;14.88;;;8.30;99.90;;;;;;5059899;28;25080;-73
2023/02/22 07:05:32;;;;;;;39.08;16.58;;;8.30;99.90;;;;;;5059717;28;25057;-73
2023/02/22 07:08:06;;;;;;;32.17;14.45;;;8.40;99.90;;;;;;5059492;28;25075;-77
2023/02/22 07:10:35;;;;;;;40.05;15.95;;;8.40;99.90;;;;;;5041418;28;25114;-75
2023/02/22 07:13:03;;;;;;;41.83;15.73;;;8.40;99.90;;;;;;5059087;28;25054;-76
2023/02/22 07:15:32;;;;;;;40.40;14.88;;;8.50;99.90;;;;;;5041542;28;25048;-72
2023/02/22 07:18:00;;;;;;;36.88;16.48;;;8.50;99.90;;;;;;5059258;28;25054;-72
2023/02/22 07:20:30;;;;;;;40.70;15.43;;;8.60;99.90;;;;;;5059550;28;25066;-73
2023/02/22 07:22:58;;;;;;;43.15;15.00;;;8.70;99.90;;;;;;5058961;28;25067;-73
2023/02/22 07:25:26;;;;;;;34.58;15.20;;;8.70;99.90;;;;;;5059116;28;25110;-73
2023/02/22 07:27:54;;;;;;;36.30;15.13;;;8.70;99.90;;;;;;5058715;28;25130;-73
2023/02/22 07:30:29;;;;;;;44.20;17.15;;;8.70;99.90;;;;;;5059429;28;25074;-72
2023/02/22 07:32:57;;;;;;;;;;;8.70;99.90;;;;;;5060087;28;25074;-73
2023/02/22 07:35:29;;;;;;;39.80;15.95;;;8.80;99.90;;;;;;5059512;28;24076;-73
2023/02/22 07:37:57;;;;;;;41.92;16.15;;;8.80;99.90;;;;;;5058672;28;25067;-73
2023/02/22 07:40:26;;;;;;;37.35;16.58;;;8.80;99.90;;;;;;5059899;28;25057;-73
2023/02/22 07:43:05;;;;;;;41.75;17.48;;;8.90;99.90;;;;;;5040805;28;25072;-73
2023/02/22 07:45:34;;;;;;;41.75;17.50;;;8.90;99.90;;;;;;5058676;28;25065;-73
2023/02/22 07:48:03;;;;;;;37.53;17.33;;;9.00;99.90;;;;;;5058758;28;25067;-73
2023/02/22 07:50:32;;;;;;;41.05;17.35;;;9.00;99.90;;;;;;5058984;28;25054;-73
2023/02/22 07:53:04;;;;;;;40.47;17.15;;;9.00;99.90;;;;;;5042096;28;25095;-73
2023/02/22 07:55:33;;;;;;;41.78;16.83;;;9.10;99.90;;;;;;5058806;28;25121;-73
2023/02/22 07:58:02;;;;;;;36.22;17.02;;;9.20;99.90;;;;;;5040557;28;25075;-73
2023/02/22 08:00:40;;;;;;;36.40;16.27;;;9.30;99.90;;;;;;5040595;28;25059;-72
2023/02/22 08:03:12;;;;;;;35.50;16.45;;;9.30;99.90;;;;;;5058176;28;25098;-72
2023/02/22 08:05:42;;;;;;;41.45;17.38;;;9.40;99.90;;;;;;5058369;28;25143;-73
2023/02/22 08:08:09;;;;;;;37.22;16.70;;;9.50;99.90;;;;;;5057565;28;25095;-73
2023/02/22 08:10:36;;;;;;;36.95;16.50;;;9.50;99.90;;;;;;5058223;28;25084;-73
2023/02/22 08:13:05;;;;;;;37.42;16.23;;;9.60;99.90;;;;;;5058485;28;25049;-73
2023/02/22 08:15:35;;;;;;;36.88;16.95;;;9.60;99.90;;;;;;5058167;28;25117;-73
2023/02/22 08:18:04;;;;;;;38.35;17.35;;;9.70;99.90;;;;;;5057908;28;25099;-73
2023/02/22 08:20:31;;;;;;;35.72;16.85;;;9.80;99.90;;;;;;5058204;28;25053;-73
2023/02/22 08:22:59;;;;;;;43.75;18.23;;;9.70;99.90;;;;;;5058231;28;25150;-73
2023/02/22 08:25:28;;;;;;;39.47;18.42;;;9.80;99.90;;;;;;5040290;28;25105;-73
2023/02/22 08:28:01;;;;;;;40.97;17.45;;;9.80;99.90;;;;;;5057566;28;25082;-73
2023/02/22 08:30:33;;;;;;;39.25;17.42;;;9.80;99.90;;;;;;5040077;28;25094;-73
2023/02/22 08:33:02;;;;;;;42.22;18.80;;;9.80;99.90;;;;;;5057913;28;25109;-73
2023/02/22 08:35:31;;;;;;;39.38;18.63;;;9.80;99.90;;;;;;5058014;28;25063;-73
2023/02/22 08:38:05;;;;;;;39.75;18.88;;;9.80;99.90;;;;;;5058068;28;25089;-73
2023/02/22 08:40:36;;;;;;;37.65;18.50;;;9.80;99.90;;;;;;5039780;28;25116;-73
2023/02/22 08:43:05;;;;;;;39.75;18.70;;;9.90;99.90;;;;;;5039666;28;25074;-72
2023/02/22 08:45:32;;;;;;;45.13;20.00;;;9.90;99.90;;;;;;5057570;28;25076;-73
2023/02/22 08:48:00;;;;;;;43.67;19.95;;;9.90;99.90;;;;;;5039879;28;25136;-72
2023/02/22 08:50:29;;;;;;;36.58;17.58;;;9.90;99.90;;;;;;5057593;28;25125;-72
2023/02/22 08:52:59;;;;;;;36.20;18.15;;;10.00;99.90;;;;;;5040160;28;25052;-72
2023/02/22 08:55:33;;;;;;;46.03;19.60;;;10.00;99.90;;;;;;5057679;28;25071;-73
2023/02/22 08:58:02;;;;;;;38.63;17.98;;;10.10;99.90;;;;;;5057108;28;25061;-73
2023/02/22 09:00:31;;;;;;;39.03;18.25;;;10.10;99.90;;;;;;5057697;28;25136;-73
2023/02/22 09:03:00;;;;;;;44.40;19.48;;;10.20;99.90;;;;;;5057078;28;25075;-72
2023/02/22 09:05:29;;;;;;;41.33;19.15;;;10.30;99.90;;;;;;5057211;28;25080;-72
2023/02/22 09:07:57;;;;;;;38.90;19.13;;;10.30;99.90;;;;;;5056657;28;25057;-73
2023/02/22 09:10:29;;;;;;;41.65;18.38;;;10.30;99.90;;;;;;5056961;28;25130;-72
2023/02/22 09:12:59;;;;;;;37.80;19.23;;;10.40;99.90;;;;;;5057159;28;25057;-72
2023/02/22 09:15:27;;;;;;;36.00;17.30;;;10.40;99.90;;;;;;5056859;28;25137;-73
2023/02/22 09:17:54;;;;;;;34.65;16.73;;;10.40;99.90;;;;;;5039057;28;25104;-72
2023/02/22 09:20:23;;;;;;;39.90;17.33;;;10.50;99.90;;;;;;5039073;28;25061;-73
2023/02/22 09:22:52;;;;;;;39.67;18.08;;;10.60;99.90;;;;;;5039076;28;25098;-72
2023/02/22 09:25:22;;;;;;;33.40;16.85;;;10.60;99.90;;;;;;5056506;28;25119;-72
2023/02/22 09:27:55;;;;;;;35.78;16.92;;;10.60;99.90;;;;;;5056804;28;25152;-73
2023/02/22 09:30:31;;;;;;;36.13;16.80;;;10.70;99.90;;;;;;5039091;28;25050;-73
2023/02/22 09:33:08;;;;;;;31.98;15.93;;;10.70;99.90;;;;;;5056976;28;25070;-72
2023/02/22 09:35:36;;;;;;;31.98;16.60;;;10.70;99.90;;;;;;5056245;28;25119;-72
2023/02/22 09:38:07;;;;;;;33.67;17.25;;;10.70;99.90;;;;;;5038840;28;25055;-73
2023/02/22 09:40:43;;;;;;;30.10;15.48;;;10.70;99.90;;;;;;5056427;28;25094;-73
2023/02/22 09:43:34;;;;;;;34.75;17.35;;;10.80;99.90;;;;;;5056429;28;25130;-73
2023/02/22 09:46:17;;;;;;;28.13;15.10;;;10.90;99.90;;;;;;5056583;28;25063;-72
2023/02/22 09:48:59;;;;;;;32.05;16.65;;;11.00;99.90;;;;;;5056960;28;25086;-73
2023/02/22 09:51:51;;;;;;;31.45;14.65;;;11.10;99.90;;;;;;5056283;28;25063;-72
2023/02/22 09:54:25;;;;;;;28.90;15.82;;;11.10;99.90;;;;;;5056470;28;25131;-72
2023/02/22 09:57:00;;;;;;;31.20;14.95;;;11.10;99.90;;;;;;5056825;28;25099;-72
2023/02/22 09:59:36;;;;;;;28.50;14.88;;;11.10;99.90;;;;;;5038613;28;25054;-72
2023/02/22 10:02:28;;;;;;;28.13;14.55;;;11.20;99.90;;;;;;5038579;28;25065;-72
2023/02/22 10:05:13;;;;;;;26.52;13.35;;;11.20;99.90;;;;;;5039587;28;25059;-72
2023/02/22 10:08:07;;;;;;;30.63;14.25;;;11.20;99.90;;;;;;5056054;28;25109;-72
2023/02/22 10:10:51;;;;;;;34.45;15.38;;;11.30;99.90;;;;;;5036363;28;25077;-72
2023/02/22 10:13:29;;;;;;;29.50;13.90;;;11.30;99.90;;;;;;5037072;28;25106;-72
2023/02/22 10:16:19;;;;;;;34.05;15.23;;;11.30;99.90;;;;;;5036408;28;25074;-72
2023/02/22 10:19:07;;;;;;;27.30;13.10;;;11.40;99.90;;;;;;5036426;28;25109;-72
2023/02/22 10:21:52;;;;;;;23.67;12.32;;;11.50;99.90;;;;;;5036663;28;25122;-72
2023/02/22 10:24:38;;;;;;;23.02;11.60;;;11.50;99.90;;;;;;5036509;28;25057;-72
2023/02/22 10:27:13;;;;;;;26.05;12.95;;;11.50;99.90;;;;;;5035963;28;25082;-72
2023/02/22 10:29:45;;;;;;;20.70;11.57;;;11.60;99.90;;;;;;5037180;28;25080;-72
2023/02/22 10:32:31;;;;;;;24.85;12.75;;;11.70;99.90;;;;;;5040287;28;25060;-72
2023/02/22 10:35:04;;;;;;;20.90;11.43;;;11.70;99.90;;;;;;5040404;28;25078;-72
2023/02/22 10:37:34;;;;;;;24.88;12.30;;;11.80;99.90;;;;;;5039718;28;25093;-72
2023/02/22 10:40:21;;;;;;;21.25;11.85;;;11.80;99.90;;;;;;5040470;28;25098;-72
2023/02/22 10:42:49;;;;;;;25.40;11.68;;;11.90;99.90;;;;;;5039659;28;25054;-72
2023/02/22 10:45:31;;;;;;;25.63;13.25;;;11.90;99.90;;;;;;5022341;28;25113;-72
2023/02/22 10:48:07;;;;;;;30.30;12.65;;;12.00;99.90;;;;;;5039564;28;25136;-72
2023/02/22 10:50:39;;;;;;;22.23;10.88;;;12.10;99.90;;;;;;5039470;28;25079;-72
2023/02/22 10:53:08;;;;;;;25.92;12.10;;;12.10;99.90;;;;;;5039554;28;25069;-72
2023/02/22 10:55:36;;;;;;;22.70;11.35;;;12.10;99.90;;;;;;5039696;28;25123;-72
2023/02/22 10:58:06;;;;;;;19.73;10.93;;;12.10;99.90;;;;;;5040224;28;25117;-72
2023/02/22 11:00:36;;;;;;;19.95;11.02;;;12.00;99.90;;;;;;5021931;28;25077;-72
2023/02/22 11:03:22;;;;;;;21.63;11.00;;;12.10;99.90;;;;;;5039942;28;25054;-72
2023/02/22 11:05:51;;;;;;;17.80;10.27;;;12.10;99.90;;;;;;5039585;28;25057;-73
2023/02/22 11:08:21;;;;;;;20.17;11.55;;;12.10;99.90;;;;;;5043437;28;25123;-73
2023/02/22 11:10:50;;;;;;;19.40;10.82;;;12.10;99.90;;;;;;5059781;28;25061;-72
2023/02/22 11:13:27;;;;;;;19.42;10.52;;;12.20;99.90;;;;;;5059598;28;25079;-72
2023/02/22 11:16:17;;;;;;;19.13;10.98;;;12.20;99.90;;;;;;5059123;28;25083;-72
2023/02/22 11:18:46;;;;;;;18.60;10.73;;;12.20;99.90;;;;;;5059131;28;25123;-72
2023/02/22 11:21:22;;;;;;;19.23;10.43;;;12.20;99.90;;;;;;5059044;28;25103;-72
2023/02/22 11:24:01;;;;;;;17.27;9.75;;;12.30;99.90;;;;;;5060034;28;25105;-72
2023/02/22 11:26:28;;;;;;;16.30;8.77;;;12.30;99.90;;;;;;5059369;28;25089;-72
2023/02/22 11:28:56;;;;;;;18.05;8.82;;;12.40;99.90;;;;;;5058822;28;25051;-72
2023/02/22 11:31:27;;;;;;;17.08;8.32;;;12.40;99.90;;;;;;5059079;28;25122;-73
2023/02/22 11:34:01;;;;;;;16.42;9.30;;;12.40;99.90;;;;;;5059262;28;25071;-72
2023/02/22 11:36:40;;;;;;;20.23;9.43;;;12.40;99.90;;;;;;5059564;28;25080;-72
2023/02/22 11:39:37;;;;;;;19.83;10.05;;;12.50;99.90;;;;;;5041049;28;25100;-72
2023/02/22 11:42:25;;;;;;;18.27;10.38;;;12.60;99.90;;;;;;5058361;28;25133;-73
2023/02/22 11:45:26;;;;;;;15.50;8.85;;;12.60;99.90;;;;;;5041029;28;25059;-72
2023/02/22 11:48:00;;;;;;;14.68;8.73;;;12.70;99.90;;;;;;5016236;28;25133;-73
2023/02/22 11:50:33;;;;;;;14.45;8.25;;;12.70;99.90;;;;;;5040844;28;25086;-72
2023/02/22 11:53:20;;;;;;;14.02;8.00;;;12.80;99.90;;;;;;5040763;28;25099;-73
2023/02/22 11:56:20;;;;;;;14.98;8.43;;;13.00;99.90;;;;;;5058282;28;25099;-72
2023/02/22 11:59:17;;;;;;;14.50;7.78;;;13.00;99.90;;;;;;5058160;28;25078;-73
2023/02/22 12:02:05;;;;;;;12.73;7.10;;;13.10;99.90;;;;;;5054744;28;25068;-72
2023/02/22 12:04:43;;;;;;;15.70;7.90;;;13.20;99.90;;;;;;5058410;28;25148;-73
2023/02/22 12:07:31;;;;;;;18.42;8.38;;;13.20;99.90;;;;;;5058340;28;25095;-73
2023/02/22 12:10:11;;;;;;;16.33;7.95;;;13.30;99.90;;;;;;5058044;28;25089;-73
2023/02/22 12:13:02;;;;;;;15.07;7.35;;;13.30;99.90;;;;;;5058634;28;25055;-72
2023/02/22 12:15:55;;;;;;;29.13;10.73;;;13.40;99.90;;;;;;5058713;28;25060;-73
2023/02/22 12:18:40;;;;;;;32.28;11.23;;;13.50;99.90;;;;;;5058184;28;25051;-72
2023/02/22 12:21:15;;;;;;;13.02;7.90;;;13.60;99.90;;;;;;5058415;28;25101;-72
2023/02/22 12:23:59;;;;;;;13.18;7.50;;;13.60;99.90;;;;;;5058019;28;25102;-72
2023/02/22 12:26:38;;;;;;;11.32;6.85;;;13.70;99.90;;;;;;5057937;28;25105;-72
2023/02/22 12:29:21;;;;;;;11.05;7.30;;;13.80;99.90;;;;;;5058079;28;25093;-72
2023/02/22 12:32:02;;;;;;;10.70;6.88;;;13.80;99.90;;;;;;5058229;28;25155;-72
2023/02/22 12:35:10;;;;;;;12.43;6.60;;;13.90;99.90;;;;;;5057867;28;25070;-72
2023/02/22 12:38:13;;;;;;;12.02;6.65;;;13.90;99.90;;;;;;4977341;28;25067;-73
2023/02/22 12:40:56;;;;;;;10.95;6.45;;;14.00;99.90;;;;;;5057855;28;25082;-72
2023/02/22 12:43:50;;;;;;;15.30;6.82;;;14.00;99.90;;;;;;5057602;28;25077;-73
2023/02/22 12:46:24;;;;;;;15.32;5.97;;;14.10;99.90;;;;;;5057644;28;25067;-72
2023/02/22 12:49:14;;;;;;;13.15;5.43;;;14.10;99.90;;;;;;5058290;28;25066;-72
2023/02/22 12:52:00;;;;;;;9.77;6.00;;;14.30;99.90;;;;;;5039650;28;25078;-72
2023/02/22 12:54:55;;;;;;;14.65;5.88;;;14.30;99.90;;;;;;5057791;28;25077;-73
2023/02/22 12:57:34;;;;;;;11.88;5.60;;;14.30;99.90;;;;;;5057204;28;25081;-72
2023/02/22 13:00:17;;;;;;;9.50;5.47;;;14.30;99.90;;;;;;5057158;28;25133;-73
2023/02/22 13:03:05;;;;;;;11.85;6.43;;;14.40;99.90;;;;;;5057281;28;25073;-73
2023/02/22 13:05:40;;;;;;;8.95;5.38;;;14.40;99.90;;;;;;5057637;28;25070;-73
2023/02/22 13:08:28;;;;;;;8.57;5.50;;;14.60;99.90;;;;;;5056698;28;25093;-73
2023/02/22 13:11:45;;;;;;;13.15;5.70;;;14.60;99.90;;;;;;5057506;28;25067;-73
2023/02/22 13:14:50;;;;;;;11.13;5.72;;;14.70;99.90;;;;;;5053034;28;25060;-73